Time;durP1;ratioP1;P1;durP2;ratioP2;P2;SDS_P1;SDS_P2;PMS_P1;PMS_P2;Temp;Humidity;BMP_temperature;BMP_pressure;BME280_temperature;BME280_humidity;BME280_pressure;Samples;Min_cycle;Max_cycle;Signal;HPM_P1;HPM_P2
2022/07/19 00:02:10;;;;;;;0.47;0.47;;;;;;;22.90;34.91;100217.91;4864876;29;20044;-74
2022/07/19 00:04:36;;;;;;;0.40;0.40;;;;;;;22.91;35.09;100220.31;4864125;29;20111;-76
2022/07/19 00:07:02;;;;;;;0.45;0.45;;;;;;;22.92;34.97;100218.34;4874252;29;20480;-74
2022/07/19 00:09:28;;;;;;;0.52;0.50;;;;;;;22.91;35.08;100216.69;4884262;29;20055;-76
2022/07/19 00:11:54;;;;;;;2.45;0.80;;;;;;;22.90;35.50;100223.47;4898679;29;20393;-75
2022/07/19 00:14:19;;;;;;;1.02;0.52;;;;;;;22.86;35.23;100216.97;4870231;29;20043;-74
2022/07/19 00:16:45;;;;;;;0.63;0.63;;;;;;;22.82;35.56;100214.91;4904026;29;20068;-74
2022/07/19 00:19:11;;;;;;;0.68;0.68;;;;;;;22.82;35.33;100214.91;4876321;29;20056;-75
2022/07/19 00:21:36;;;;;;;0.85;0.50;;;;;;;22.77;35.26;100215.13;4900813;29;20029;-76
2022/07/19 00:24:01;;;;;;;1.73;0.98;;;;;;;22.82;35.60;100222.44;4902435;29;20045;-74
2022/07/19 00:26:27;;;;;;;1.15;0.73;;;;;;;22.80;35.44;100197.69;4899321;29;20176;-75
2022/07/19 00:28:54;;;;;;;0.80;0.70;;;;;;;22.81;35.37;100216.06;4880509;29;20040;-78
2022/07/19 00:31:21;;;;;;;0.65;0.60;;;;;;;22.76;35.42;100207.94;4891794;29;20059;-75
2022/07/19 00:33:46;;;;;;;0.60;0.50;;;;;;;22.71;35.60;100205.41;4866852;29;20073;-74
2022/07/19 00:36:12;;;;;;;0.45;0.45;;;;;;;22.65;35.58;100206.84;4877586;29;20449;-76
2022/07/19 00:38:38;;;;;;;0.68;0.50;;;;;;;22.62;35.60;100204.75;4890275;29;20032;-75
2022/07/19 00:41:03;;;;;;;1.10;0.55;;;;;;;22.55;35.81;100190.59;4886745;29;20033;-76
2022/07/19 00:43:29;;;;;;;0.93;0.60;;;;;;;22.56;35.75;100189.44;4866267;29;20041;-76
2022/07/19 00:45:54;;;;;;;0.68;0.40;;;;;;;22.59;35.61;100185.94;4862433;29;20029;-76
2022/07/19 00:48:20;;;;;;;0.47;0.47;;;;;;;22.56;35.76;100193.03;4881201;29;20041;-76
2022/07/19 00:50:45;;;;;;;0.60;0.60;;;;;;;22.52;36.01;100192.13;4870151;29;20077;-75
2022/07/19 00:53:13;;;;;;;0.60;0.50;;;;;;;22.48;36.12;100180.84;4904143;29;20029;-75
2022/07/19 00:55:40;;;;;;;0.82;0.60;;;;;;;22.44;35.98;100179.97;4880772;29;20428;-75
2022/07/19 00:58:06;;;;;;;0.73;0.70;;;;;;;22.45;36.54;100180.75;4867440;29;20119;-73
2022/07/19 01:00:34;;;;;;;1.05;0.50;;;;;;;22.51;36.42;100184.13;4876736;29;20028;-74
2022/07/19 01:03:00;;;;;;;1.23;0.70;;;;;;;22.48;36.39;100169.72;4877788;29;20049;-74
2022/07/19 01:05:25;;;;;;;0.98;0.73;;;;;;;22.52;36.49;100180.16;4903053;29;20065;-74
2022/07/19 01:07:51;;;;;;;1.30;0.80;;;;;;;22.48;36.49;100164.13;4884379;29;20029;-75
2022/07/19 01:10:16;;;;;;;1.38;0.98;;;;;;;22.45;36.25;100170.41;4881943;29;20056;-74
2022/07/19 01:12:43;;;;;;;1.88;0.95;;;;;;;22.49;36.44;100176.91;4886252;29;20036;-73
2022/07/19 01:15:14;;;;;;;0.80;0.80;;;;;;;22.39;36.49;100162.69;4879479;29;20036;-75
2022/07/19 01:17:39;;;;;;;1.00;0.82;;;;;;;22.39;36.46;100169.06;4903861;29;20020;-73
2022/07/19 01:20:06;;;;;;;0.77;0.70;;;;;;;22.39;36.59;100171.84;4882749;29;20080;-74
2022/07/19 01:22:33;;;;;;;0.68;0.68;;;;;;;22.31;36.57;100165.22;4880689;29;20116;-71
2022/07/19 01:24:59;;;;;;;0.85;0.85;;;;;;;22.33;36.60;100167.69;4885911;29;20147;-74
2022/07/19 01:27:24;;;;;;;0.65;0.65;;;;;;;22.26;36.69;100159.09;4903001;29;20048;-77
2022/07/19 01:29:51;;;;;;;0.45;0.45;;;;;;;22.29;36.61;100156.38;4859523;29;20138;-74
2022/07/19 01:32:17;;;;;;;1.27;0.80;;;;;;;22.27;36.92;100153.16;4883668;29;20046;-74
2022/07/19 01:34:42;;;;;;;0.80;0.80;;;;;;;22.26;36.82;100150.72;4889006;29;20493;-73
2022/07/19 01:37:08;;;;;;;1.00;0.80;;;;;;;22.26;36.93;100151.53;4858545;29;20036;-73
2022/07/19 01:39:33;;;;;;;0.85;0.52;;;;;;;22.24;36.67;100153.88;4871629;29;20040;-76
2022/07/19 01:41:58;;;;;;;0.93;0.70;;;;;;;22.21;37.16;100142.59;4889814;29;20495;-74
2022/07/19 01:44:24;;;;;;;0.80;0.75;;;;;;;22.24;36.94;100145.50;4884600;29;20037;-74
2022/07/19 01:46:50;;;;;;;1.05;0.90;;;;;;;22.18;36.89;100132.16;4889983;29;20032;-73
2022/07/19 01:49:15;;;;;;;1.10;0.90;;;;;;;22.22;37.18;100144.22;4891311;29;20084;-75
2022/07/19 01:51:40;;;;;;;0.93;0.85;;;;;;;22.20;37.15;100129.84;4891175;29;20040;-75
2022/07/19 01:54:06;;;;;;;1.23;0.90;;;;;;;22.23;37.39;100132.75;4858588;29;20043;-73
2022/07/19 01:56:31;;;;;;;1.52;0.98;;;;;;;22.25;37.35;100135.16;4905973;29;20040;-74
2022/07/19 01:58:57;;;;;;;1.50;1.17;;;;;;;22.13;37.58;100108.97;4889632;29;20036;-74
2022/07/19 02:01:22;;;;;;;1.63;0.90;;;;;;;22.20;37.49;100121.50;4874384;29;20472;-74
2022/07/19 02:03:48;;;;;;;1.58;0.90;;;;;;;22.26;37.59;100123.69;4907782;29;20036;-73
2022/07/19 02:06:13;;;;;;;4.55;1.10;;;;;;;22.29;37.63;100122.16;4883159;29;20373;-75
2022/07/19 02:08:40;;;;;;;1.58;1.00;;;;;;;22.35;37.56;100125.53;4889954;29;20059;-74
2022/07/19 02:13:50;;;;;;;1.27;0.88;;;;;;;22.26;37.45;100117.31;4904343;29;20080;-75
2022/07/19 02:16:16;;;;;;;1.85;1.02;;;;;;;22.32;37.41;100121.47;4874555;29;20052;-74
2022/07/19 02:18:41;;;;;;;1.25;0.77;;;;;;;22.27;37.62;100113.38;4913706;29;20038;-72
2022/07/19 02:21:07;;;;;;;0.88;0.82;;;;;;;22.35;37.49;100120.78;4889275;29;20039;-73
2022/07/19 02:23:32;;;;;;;1.13;0.90;;;;;;;22.30;37.30;100124.59;4898784;29;20040;-74
2022/07/19 02:25:57;;;;;;;1.00;0.95;;;;;;;22.33;37.65;100122.28;4903849;29;20032;-74
2022/07/19 02:28:23;;;;;;;1.25;0.80;;;;;;;22.38;37.52;100122.84;4894905;29;20037;-75
2022/07/19 02:30:48;;;;;;;2.00;1.17;;;;;;;22.44;37.70;100124.25;4902736;29;20407;-74
2022/07/19 02:33:14;;;;;;;1.45;1.10;;;;;;;22.52;37.48;100124.44;4891522;29;20039;-75
2022/07/19 02:35:39;;;;;;;4.07;1.25;;;;;;;22.61;37.66;100127.88;4902576;29;20029;-73
2022/07/19 02:38:05;;;;;;;1.80;1.10;;;;;;;22.56;37.33;100109.44;4854580;29;20061;-74
2022/07/19 02:40:30;;;;;;;1.48;1.25;;;;;;;22.59;37.91;100113.47;4887336;29;20086;-73
2022/07/19 02:42:56;;;;;;;1.13;1.00;;;;;;;22.56;37.53;100109.44;4885680;29;20028;-74
2022/07/19 02:45:21;;;;;;;1.63;1.17;;;;;;;22.54;37.73;100099.81;4898420;29;20032;-73
2022/07/19 02:47:47;;;;;;;1.88;1.10;;;;;;;22.54;37.76;100100.63;4886843;29;20021;-74
2022/07/19 02:50:13;;;;;;;1.30;1.20;;;;;;;22.55;37.85;100105.03;4870147;29;20036;-73
2022/07/19 02:52:38;;;;;;;1.10;0.95;;;;;;;22.48;37.82;100091.69;4904065;29;20021;-73
2022/07/19 02:55:05;;;;;;;1.58;0.85;;;;;;;22.47;37.79;100090.09;4904982;29;20106;-72
2022/07/19 02:57:30;;;;;;;1.65;1.30;;;;;;;22.43;38.19;100089.19;4886385;29;20060;-73
2022/07/19 02:59:56;;;;;;;1.65;1.00;;;;;;;22.37;38.24;100090.63;4885265;29;20033;-74
2022/07/19 03:02:21;;;;;;;1.48;0.98;;;;;;;22.33;38.16;100089.69;4886744;29;20040;-74
2022/07/19 03:04:47;;;;;;;3.13;1.15;;;;;;;22.27;38.16;100089.09;4866132;29;20036;-73
2022/07/19 03:07:13;;;;;;;3.58;1.20;;;;;;;22.21;38.58;100082.16;4883518;29;20068;-73
2022/07/19 03:09:39;;;;;;;1.23;0.90;;;;;;;22.19;38.45;100078.09;4885873;29;20056;-73
2022/07/19 03:12:05;;;;;;;2.05;0.60;;;;;;;22.13;38.17;100080.31;4859054;29;20044;-73
2022/07/19 03:14:30;;;;;;;0.93;0.80;;;;;;;22.12;38.46;100078.69;4882866;29;20021;-72
2022/07/19 03:16:56;;;;;;;0.73;0.73;;;;;;;22.12;38.46;100079.53;4887333;29;20040;-73
2022/07/19 03:19:21;;;;;;;1.48;0.80;;;;;;;22.13;38.57;100083.09;4886118;29;20032;-72
2022/07/19 03:21:48;;;;;;;1.33;0.70;;;;;;;22.15;38.57;100072.41;4875045;29;20143;-72
2022/07/19 03:24:13;;;;;;;2.50;1.08;;;;;;;22.17;38.50;100083.22;4887075;29;20043;-73
2022/07/19 03:26:39;;;;;;;0.90;0.73;;;;;;;22.14;38.67;100070.81;4881218;29;20025;-73
2022/07/19 03:29:04;;;;;;;0.60;0.60;;;;;;;22.11;38.75;100069.53;4898216;29;20115;-72
2022/07/19 03:31:29;;;;;;;1.17;0.93;;;;;;;22.05;38.55;100057.03;4900907;29;20092;-73
2022/07/19 03:33:55;;;;;;;0.93;0.73;;;;;;;22.05;38.78;100062.59;4864836;29;20535;-72
2022/07/19 03:36:20;;;;;;;1.70;0.95;;;;;;;22.01;39.14;100058.91;4903618;29;20028;-75
2022/07/19 03:38:46;;;;;;;1.52;0.90;;;;;;;21.98;39.45;100059.63;4884729;29;20705;-74
2022/07/19 03:41:11;;;;;;;1.23;0.90;;;;;;;21.92;39.29;100059.03;4901718;29;20059;-74
2022/07/19 03:43:38;;;;;;;1.45;1.05;;;;;;;21.90;39.44;100072.50;4887957;29;20063;-73
2022/07/19 03:46:03;;;;;;;1.33;0.90;;;;;;;21.82;39.30;100061.50;4887846;29;20065;-73
2022/07/19 03:48:29;;;;;;;1.58;0.98;;;;;;;21.82;39.47;100064.28;4879366;29;20032;-72
2022/07/19 03:50:54;;;;;;;1.65;1.02;;;;;;;21.75;39.57;100062.91;4884447;29;20043;-75
2022/07/19 03:53:20;;;;;;;0.77;0.77;;;;;;;21.70;39.48;100046.47;4879144;29;20032;-73
2022/07/19 03:55:45;;;;;;;2.38;0.70;;;;;;;21.65;39.69;100055.03;4885032;29;20558;-73
2022/07/19 03:58:11;;;;;;;0.50;0.50;;;;;;;21.60;39.62;100052.50;4887326;29;20028;-72
2022/07/19 04:00:36;;;;;;;1.10;0.90;;;;;;;21.53;40.49;100046.72;4872276;29;20088;-71
2022/07/19 04:03:02;;;;;;;0.88;0.80;;;;;;;21.47;40.40;100040.53;4848001;29;20044;-71
2022/07/19 04:05:27;;;;;;;0.73;0.60;;;;;;;21.42;40.51;100047.16;4880307;29;20041;-72
2022/07/19 04:07:53;;;;;;;0.60;0.60;;;;;;;21.38;40.40;100051.00;4868007;29;20041;-71
2022/07/19 04:10:18;;;;;;;1.85;0.63;;;;;;;21.34;40.53;100056.41;4887128;29;20527;-72
2022/07/19 04:12:44;;;;;;;0.50;0.50;;;;;;;21.33;41.04;100049.22;4884561;29;20129;-74
2022/07/19 04:15:09;;;;;;;1.55;0.90;;;;;;;21.35;40.81;100049.72;4875255;29;20476;-72
2022/07/19 04:17:35;;;;;;;1.33;0.82;;;;;;;21.27;41.04;100037.56;4877117;29;20116;-74
2022/07/19 04:20:00;;;;;;;0.88;0.70;;;;;;;21.36;41.41;100039.38;4898429;29;20069;-75
2022/07/19 04:22:26;;;;;;;1.52;0.90;;;;;;;21.37;41.37;100038.22;4909259;29;20036;-74
2022/07/19 04:24:52;;;;;;;1.02;0.75;;;;;;;21.35;41.62;100038.59;4873646;29;20029;-74
2022/07/19 04:27:17;;;;;;;4.65;0.90;;;;;;;21.32;41.43;100030.94;4884400;29;20065;-75
2022/07/19 04:29:44;;;;;;;1.20;0.90;;;;;;;21.31;41.93;100029.31;4886906;29;20031;-73
2022/07/19 04:32:10;;;;;;;0.90;0.82;;;;;;;21.32;41.87;100033.72;4901301;29;20037;-74
2022/07/19 04:34:35;;;;;;;1.75;1.30;;;;;;;21.34;42.31;100028.63;4897570;29;20029;-76
2022/07/19 04:37:00;;;;;;;2.10;0.98;;;;;;;21.31;42.02;100012.63;4857016;29;20120;-76
2022/07/19 04:39:26;;;;;;;1.23;1.02;;;;;;;21.31;42.29;100009.03;4903823;29;20080;-76
2022/07/19 04:41:51;;;;;;;0.80;0.80;;;;;;;21.34;42.28;100011.94;4872596;29;20034;-73
2022/07/19 04:44:17;;;;;;;0.80;0.57;;;;;;;21.32;42.29;100003.13;4883972;29;20032;-75
2022/07/19 04:46:42;;;;;;;0.70;0.70;;;;;;;21.33;42.28;99999.16;4869745;29;20130;-73
2022/07/19 04:49:08;;;;;;;0.70;0.65;;;;;;;21.38;42.39;100001.72;4883307;29;20487;-75
2022/07/19 04:51:33;;;;;;;1.10;0.65;;;;;;;21.43;42.39;100009.81;4855585;29;20096;-74
2022/07/19 04:53:59;;;;;;;0.63;0.63;;;;;;;21.44;42.36;100000.31;4886753;29;20476;-75
2022/07/19 04:56:24;;;;;;;0.50;0.50;;;;;;;21.49;42.51;100006.81;4901682;29;20418;-75
2022/07/19 04:58:50;;;;;;;0.77;0.77;;;;;;;21.53;42.43;100007.78;4901547;29;20033;-74
2022/07/19 05:01:15;;;;;;;0.65;0.50;;;;;;;21.57;42.68;100006.72;4907119;29;20032;-74
2022/07/19 05:03:41;;;;;;;1.17;0.68;;;;;;;21.59;42.87;99995.22;4903372;29;20096;-74
2022/07/19 05:06:11;;;;;;;0.98;0.77;;;;;;;21.68;42.79;99998.69;4865697;29;20032;-73
2022/07/19 05:08:36;;;;;;;1.30;1.20;;;;;;;21.75;42.95;99993.31;4873665;29;20068;-73
2022/07/19 05:11:02;;;;;;;3.22;1.20;;;;;;;21.89;43.27;99997.69;4900374;29;20492;-71
2022/07/19 05:13:27;;;;;;;2.65;1.50;;;;;;;22.00;43.03;99987.69;4885534;29;20039;-73
2022/07/19 05:15:53;;;;;;;2.65;1.40;;;;;;;22.08;42.92;99989.50;4903463;29;20036;-74
2022/07/19 05:18:18;;;;;;;3.20;1.48;;;;;;;22.19;43.03;99984.22;4886139;29;20039;-72
2022/07/19 05:20:44;;;;;;;1.30;1.00;;;;;;;22.27;42.74;99974.13;4868135;29;20107;-74
2022/07/19 05:23:12;;;;;;;3.70;0.93;;;;;;;22.41;42.54;99987.63;4883933;29;20074;-76
2022/07/19 05:25:38;;;;;;;1.58;1.20;;;;;;;22.52;42.75;99980.38;4857771;29;20040;-76
2022/07/19 05:28:04;;;;;;;1.65;1.10;;;;;;;22.57;42.72;99971.75;4886968;29;20047;-78
2022/07/19 05:30:29;;;;;;;1.92;1.30;;;;;;;22.70;42.60;99969.69;4892152;29;20037;-76
2022/07/19 05:32:55;;;;;;;1.77;1.20;;;;;;;22.80;42.39;99963.56;4871380;29;20032;-76
2022/07/19 05:35:20;;;;;;;1.08;0.98;;;;;;;22.88;42.54;99969.31;4882308;29;20468;-73
2022/07/19 05:37:46;;;;;;;1.83;1.35;;;;;;;22.94;42.50;99965.91;4900973;29;20049;-73
2022/07/19 05:40:12;;;;;;;2.80;1.40;;;;;;;22.96;41.85;99959.97;4904993;29;20048;-74
2022/07/19 05:42:37;;;;;;;2.25;1.15;;;;;;;23.01;42.31;99957.72;4900667;29;20037;-73
2022/07/19 05:45:03;;;;;;;3.85;1.50;;;;;;;23.13;42.44;99953.22;4854444;29;20044;-73
2022/07/19 05:47:29;;;;;;;1.63;1.23;;;;;;;23.16;42.49;99946.94;4888806;29;20661;-74
2022/07/19 05:49:54;;;;;;;1.55;1.20;;;;;;;23.30;42.33;99957.59;4887164;29;20071;-76
2022/07/19 05:52:20;;;;;;;1.55;1.20;;;;;;;23.38;42.07;99959.38;4901454;29;20073;-73
2022/07/19 05:54:45;;;;;;;2.58;1.33;;;;;;;23.48;41.79;99952.41;4886817;29;20036;-74
2022/07/19 05:57:10;;;;;;;4.88;1.17;;;;;;;23.56;41.74;99958.97;4865237;29;20048;-72
2022/07/19 05:59:36;;;;;;;1.80;1.30;;;;;;;23.66;41.69;99952.81;4889669;29;20033;-72
2022/07/19 06:02:03;;;;;;;1.63;1.10;;;;;;;23.74;42.04;99954.56;4885174;29;20088;-74
2022/07/19 06:04:28;;;;;;;2.88;1.33;;;;;;;23.76;42.01;99943.84;4899822;29;21504;-75
2022/07/19 06:06:54;;;;;;;3.30;1.20;;;;;;;23.84;41.93;99955.94;4865393;29;20029;-74
2022/07/19 06:09:19;;;;;;;3.30;1.67;;;;;;;23.90;41.75;99957.31;4896507;29;20144;-75
2022/07/19 06:11:45;;;;;;;3.95;2.05;;;;;;;23.98;41.72;99952.69;4908802;29;20080;-74
2022/07/19 06:14:12;;;;;;;5.57;1.65;;;;;;;24.05;41.26;99955.63;4905920;29;20040;-75
2022/07/19 06:16:38;;;;;;;3.38;1.63;;;;;;;24.14;41.77;99950.59;4873188;29;20495;-75
2022/07/19 06:19:05;;;;;;;2.47;1.40;;;;;;;24.26;41.82;99954.41;4905852;29;20032;-75
2022/07/19 06:21:31;;;;;;;4.13;2.10;;;;;;;24.37;41.31;99952.59;4888664;29;20028;-75
2022/07/19 06:23:56;;;;;;;2.03;1.70;;;;;;;24.50;41.10;99956.84;4902494;29;20056;-76
2022/07/19 06:26:22;;;;;;;3.42;1.65;;;;;;;24.56;40.78;99949.78;4890418;29;20032;-75
2022/07/19 06:28:47;;;;;;;3.88;1.90;;;;;;;24.76;40.20;99963.69;4905888;29;20047;-76
2022/07/19 06:31:14;;;;;;;1.63;1.40;;;;;;;24.85;40.06;99944.69;4903160;29;20043;-76
2022/07/19 06:33:41;;;;;;;2.42;1.50;;;;;;;25.00;39.76;99954.09;4903029;29;20092;-75
2022/07/19 06:36:07;;;;;;;3.05;1.30;;;;;;;25.12;40.01;99955.88;4906186;29;20039;-73
2022/07/19 06:38:32;;;;;;;2.15;1.58;;;;;;;25.23;40.36;99956.84;4905695;29;20036;-75
2022/07/19 06:40:58;;;;;;;2.55;1.23;;;;;;;25.36;39.47;99956.66;4885228;29;20444;-74
2022/07/19 06:43:23;;;;;;;3.35;1.30;;;;;;;25.49;39.69;99951.63;4879271;29;20120;-76
2022/07/19 06:45:52;;;;;;;4.82;1.42;;;;;;;25.61;39.45;99951.38;4905809;29;20028;-75
2022/07/19 06:48:17;;;;;;;2.75;1.40;;;;;;;25.71;39.58;99956.31;4904312;29;20049;-75
2022/07/19 06:50:43;;;;;;;3.30;1.52;;;;;;;25.78;38.62;99945.19;4884194;29;20044;-73
2022/07/19 06:53:09;;;;;;;2.22;1.30;;;;;;;25.88;38.62;99940.13;4903366;29;20036;-75
2022/07/19 06:55:34;;;;;;;2.90;1.10;;;;;;;26.01;39.08;99937.91;4902904;29;20028;-71
2022/07/19 06:58:00;;;;;;;1.95;1.38;;;;;;;26.17;38.35;99944.09;4900156;29;20107;-73
2022/07/19 07:00:25;;;;;;;1.33;0.93;;;;;;;26.32;38.79;99927.41;4894127;29;20024;-74
2022/07/19 07:02:51;;;;;;;2.30;1.20;;;;;;;26.50;37.94;99933.97;4901677;29;20446;-73
2022/07/19 07:05:17;;;;;;;3.35;1.35;;;;;;;26.63;38.41;99932.50;4889111;29;20119;-73
2022/07/19 07:07:42;;;;;;;2.78;1.50;;;;;;;26.69;38.14;99934.97;4869505;29;20044;-73
2022/07/19 07:10:10;;;;;;;4.00;1.40;;;;;;;26.76;37.21;99923.81;4877625;29;20060;-74
2022/07/19 07:12:36;;;;;;;1.77;1.40;;;;;;;26.87;37.46;99933.13;4897712;29;20041;-72
2022/07/19 07:15:02;;;;;;;3.40;1.60;;;;;;;26.96;37.08;99927.97;4882904;29;20028;-74
2022/07/19 07:17:27;;;;;;;3.15;1.70;;;;;;;27.09;37.33;99941.69;4868814;29;20088;-73
2022/07/19 07:19:53;;;;;;;1.77;1.02;;;;;;;27.17;36.80;99932.13;4863071;29;20143;-74
2022/07/19 07:22:18;;;;;;;1.85;1.40;;;;;;;27.26;36.41;99929.78;4881262;29;20037;-73
2022/07/19 07:24:44;;;;;;;1.67;1.10;;;;;;;27.42;36.12;99931.47;4883906;29;20037;-74
2022/07/19 07:27:10;;;;;;;4.68;1.40;;;;;;;27.50;36.22;99928.31;4894880;29;20033;-74
2022/07/19 07:29:35;;;;;;;8.10;1.83;;;;;;;27.55;35.78;99927.13;4900575;29;20377;-73
2022/07/19 07:32:00;;;;;;;5.50;1.65;;;;;;;27.66;35.96;99930.00;4884680;29;20033;-73
2022/07/19 07:34:26;;;;;;;3.95;1.83;;;;;;;27.84;36.05;99936.47;4863064;29;20170;-73
2022/07/19 07:36:52;;;;;;;4.68;1.80;;;;;;;27.84;35.14;99936.47;4896447;29;20032;-74
2022/07/19 07:39:17;;;;;;;3.47;1.92;;;;;;;27.71;35.40;99920.38;4895434;29;20509;-72
2022/07/19 07:41:43;;;;;;;9.32;2.25;;;;;;;27.71;35.41;99923.19;4859628;29;20088;-73
2022/07/19 07:44:08;;;;;;;3.85;1.70;;;;;;;27.72;35.70;99920.00;4864586;29;20037;-73
2022/07/19 07:46:34;;;;;;;5.13;1.60;;;;;;;27.85;35.70;99915.63;4882130;29;20032;-73
2022/07/19 07:48:59;;;;;;;8.15;1.73;;;;;;;27.86;35.12;99899.56;4897802;29;20047;-75
2022/07/19 07:51:25;;;;;;;5.82;1.80;;;;;;;27.95;35.33;99914.03;4860006;29;20029;-73
2022/07/19 07:53:51;;;;;;;6.22;1.73;;;;;;;28.11;35.14;99898.84;4880557;29;20100;-73
2022/07/19 07:56:16;;;;;;;14.35;2.35;;;;;;;28.19;34.88;99901.25;4884961;29;20037;-75
2022/07/19 07:58:42;;;;;;;4.43;1.52;;;;;;;28.28;35.06;99912.13;4881553;29;20172;-76
2022/07/19 08:01:07;;;;;;;4.85;1.83;;;;;;;28.39;34.77;99912.94;4894400;29;20048;-73
2022/07/19 08:03:33;;;;;;;3.25;1.58;;;;;;;28.58;34.73;99899.69;4882934;29;20092;-73
2022/07/19 08:05:58;;;;;;;3.38;1.35;;;;;;;28.72;34.42;99899.72;4874835;29;20025;-74
2022/07/19 08:08:26;;;;;;;3.35;1.75;;;;;;;28.89;34.02;99891.66;4872808;29;20075;-74
2022/07/19 08:10:56;;;;;;;10.15;2.10;;;;;;;29.08;33.94;99888.41;4884866;29;20028;-74
2022/07/19 08:13:22;;;;;;;6.63;1.73;;;;;;;29.27;33.18;99889.19;4896691;29;20036;-73
2022/07/19 08:15:49;;;;;;;5.18;1.90;;;;;;;29.40;33.12;99873.44;4898114;29;20036;-74
2022/07/19 08:18:14;;;;;;;7.65;2.00;;;;;;;29.47;32.36;99874.63;4878932;29;20045;-73
2022/07/19 08:20:39;;;;;;;6.82;2.50;;;;;;;29.59;32.68;99896.72;4879618;29;20105;-74
2022/07/19 08:23:05;;;;;;;5.18;1.50;;;;;;;29.62;31.84;99881.81;4895645;29;20044;-73
2022/07/19 08:25:32;;;;;;;9.68;2.53;;;;;;;29.69;31.89;99881.78;4879440;29;20048;-73
2022/07/19 08:27:58;;;;;;;3.30;1.83;;;;;;;29.77;32.12;99886.16;4892357;29;20510;-72
2022/07/19 08:30:23;;;;;;;4.80;1.88;;;;;;;29.88;31.55;99876.88;4896428;29;20033;-72
2022/07/19 08:32:49;;;;;;;6.57;1.50;;;;;;;29.95;31.44;99885.28;4899520;29;20041;-73
2022/07/19 08:35:15;;;;;;;5.88;2.15;;;;;;;30.16;31.58;99886.38;4900566;29;20032;-74
2022/07/19 08:37:40;;;;;;;3.83;1.75;;;;;;;30.09;31.00;99882.34;4896716;29;20075;-73
2022/07/19 08:40:06;;;;;;;3.55;1.55;;;;;;;30.21;31.18;99888.72;4891849;29;20040;-73
2022/07/19 08:42:32;;;;;;;3.92;1.80;;;;;;;30.36;31.07;99887.41;4886887;29;20107;-74
2022/07/19 08:45:01;;;;;;;15.60;2.03;;;;;;;30.40;30.73;99899.47;4888751;29;20033;-73
2022/07/19 08:47:30;;;;;;;6.38;1.80;;;;;;;30.53;30.90;99911.06;4892063;29;20028;-74
2022/07/19 08:49:58;;;;;;;5.13;2.28;;;;;;;30.55;30.27;99903.00;4899612;29;20445;-73
2022/07/19 08:52:24;;;;;;;6.38;2.25;;;;;;;30.58;30.62;99907.03;4887552;29;20044;-74
2022/07/19 08:54:49;;;;;;;6.35;2.03;;;;;;;30.64;30.39;99888.41;4900055;29;20048;-74
2022/07/19 08:59:59;;;;;;;7.07;1.95;;;;;;;30.90;30.35;99900.25;4904686;29;20062;-73
2022/07/19 09:02:24;;;;;;;4.80;2.17;;;;;;;30.83;30.33;99900.34;4898927;29;20036;-74
2022/07/19 09:05:10;;;;;;;6.07;2.05;;;;;;;31.07;30.38;99899.31;4888685;29;20064;-74
2022/07/19 09:07:38;;;;;;;5.00;2.20;;;;;;;31.27;29.69;99904.34;4898774;29;20025;-74
2022/07/19 09:10:24;;;;;;;5.40;2.10;;;;;;;31.39;28.89;99903.78;4899448;29;20084;-74
2022/07/19 09:13:14;;;;;;;5.70;2.20;;;;;;;31.25;28.65;99887.00;4889346;29;20404;-73
2022/07/19 09:15:50;;;;;;;5.20;2.08;;;;;;;31.23;28.37;99892.28;4908579;29;20032;-74
2022/07/19 09:18:23;;;;;;;6.15;1.70;;;;;;;31.44;28.72;99894.88;4903100;29;20036;-75
2022/07/19 09:20:52;;;;;;;6.88;2.40;;;;;;;31.70;28.28;99881.22;4890516;29;20547;-73
2022/07/19 09:23:18;;;;;;;7.38;2.25;;;;;;;31.85;27.59;99885.47;4899316;29;20036;-74
2022/07/19 09:25:49;;;;;;;7.95;2.38;;;;;;;31.90;27.56;99891.88;4885827;29;20486;-74
2022/07/19 09:28:16;;;;;;;5.10;1.88;;;;;;;32.04;27.94;99886.00;4904046;29;20051;-75
2022/07/19 09:30:44;;;;;;;4.43;2.33;;;;;;;32.20;27.52;99888.22;4905374;29;20110;-73
2022/07/19 09:33:19;;;;;;;3.47;1.90;;;;;;;32.16;27.39;99899.59;4905911;29;20428;-73
2022/07/19 09:35:45;;;;;;;7.32;2.42;;;;;;;32.15;27.79;99895.16;4900130;29;20037;-73
2022/07/19 09:38:15;;;;;;;5.40;1.92;;;;;;;32.22;26.99;99890.63;4902300;29;20084;-74
2022/07/19 09:40:41;;;;;;;10.57;2.58;;;;;;;32.34;26.23;99899.31;4891695;29;20107;-73
2022/07/19 09:43:07;;;;;;;4.63;1.90;;;;;;;32.51;26.47;99885.31;4888027;29;20060;-72
2022/07/19 09:45:32;;;;;;;4.93;2.28;;;;;;;32.82;25.92;99888.03;4903611;29;20043;-73
2022/07/19 09:48:00;;;;;;;3.60;2.00;;;;;;;33.16;25.64;99893.47;4900200;29;20057;-73
2022/07/19 09:50:26;;;;;;;6.30;2.60;;;;;;;33.34;23.95;99889.50;4900833;29;20029;-73
2022/07/19 09:52:53;;;;;;;4.18;2.30;;;;;;;33.51;23.04;99899.66;4886425;29;20124;-74
2022/07/19 09:55:19;;;;;;;9.35;2.78;;;;;;;33.52;23.03;99895.56;4901242;29;20503;-73
2022/07/19 09:57:50;;;;;;;4.28;2.33;;;;;;;33.60;23.17;99892.59;4878752;29;20040;-74
2022/07/19 10:00:18;;;;;;;7.28;2.60;;;;;;;34.25;22.61;99898.41;4885220;29;20036;-75
2022/07/19 10:02:49;;;;;;;8.27;2.60;;;;;;;35.82;21.24;99893.84;4898697;29;20087;-73
2022/07/19 10:05:15;;;;;;;7.93;2.55;;;;;;;37.97;18.49;99890.47;4903656;29;20132;-73
2022/07/19 10:07:41;;;;;;;3.53;2.20;;;;;;;39.68;16.91;99896.28;4878529;29;20060;-73
2022/07/19 10:10:12;;;;;;;7.63;2.60;;;;;;;40.70;16.25;99899.47;4870710;29;20072;-73
2022/07/19 10:12:39;;;;;;;9.27;2.45;;;;;;;42.12;15.14;99897.13;4896333;29;20040;-73
2022/07/19 10:15:06;;;;;;;7.22;2.40;;;;;;;43.48;13.50;99890.25;4898451;29;20484;-74
2022/07/19 10:17:34;;;;;;;4.57;2.40;;;;;;;44.78;13.01;99896.91;4897668;29;20040;-74
2022/07/19 10:20:01;;;;;;;8.10;2.38;;;;;;;46.26;11.52;99900.78;4902066;29;20415;-74
2022/07/19 10:22:27;;;;;;;9.23;2.80;;;;;;;46.87;11.30;99901.09;4870628;29;20044;-74
2022/07/19 10:24:56;;;;;;;2.67;2.00;;;;;;;47.22;11.77;99888.03;4866215;29;20056;-73
2022/07/19 10:27:25;;;;;;;5.30;2.20;;;;;;;48.47;10.72;99895.66;4899228;29;20040;-73
2022/07/19 10:29:51;;;;;;;3.65;2.30;;;;;;;49.28;10.00;99891.94;4904277;29;20055;-75
2022/07/19 10:32:17;;;;;;;3.63;1.90;;;;;;;50.71;9.73;99888.84;4900109;29;20036;-74
2022/07/19 10:34:46;;;;;;;3.13;1.70;;;;;;;52.04;8.58;99897.63;4882144;29;20041;-73
2022/07/19 10:37:12;;;;;;;5.95;2.00;;;;;;;51.93;8.53;99887.00;4879824;29;20041;-75
2022/07/19 10:39:40;;;;;;;11.75;2.20;;;;;;;50.91;8.78;99883.66;4864611;29;20683;-74
2022/07/19 10:42:21;;;;;;;5.60;1.90;;;;;;;52.20;8.96;99875.97;4885028;29;20036;-75
2022/07/19 10:44:56;;;;;;;4.70;1.75;;;;;;;52.57;8.37;99873.06;4903122;29;20051;-78
2022/07/19 10:47:22;;;;;;;3.47;1.90;;;;;;;53.34;7.86;99867.47;4871892;29;20020;-74
2022/07/19 10:49:48;;;;;;;5.65;2.10;;;;;;;54.03;6.99;99867.50;4896487;29;20043;-74
2022/07/19 10:52:29;;;;;;;6.28;1.88;;;;;;;54.29;7.67;99864.72;4882405;29;20037;-74
2022/07/19 10:55:29;;;;;;;5.90;1.88;;;;;;;54.80;7.08;99872.34;4894634;29;20107;-74
2022/07/19 10:58:06;;;;;;;7.60;2.35;;;;;;;54.97;6.44;99865.00;4892959;29;20028;-74
2022/07/19 11:00:49;;;;;;;8.60;1.95;;;;;;;55.46;6.31;99863.53;4896412;29;20048;-74
2022/07/19 11:03:20;;;;;;;;;;;;;;;55.18;6.25;99864.72;4876967;29;20046;-73
2022/07/19 11:05:50;;;;;;;3.55;1.88;;;;;;;55.10;6.61;99865.56;4900316;29;19919;-73
2022/07/19 11:08:17;;;;;;;3.30;1.60;;;;;;;55.67;6.38;99880.78;4898849;29;20040;-75
2022/07/19 11:10:42;;;;;;;4.20;1.98;;;;;;;55.56;6.07;99864.44;4897635;29;20056;-75
2022/07/19 11:13:08;;;;;;;3.58;1.77;;;;;;;55.66;6.34;99878.44;4880449;29;20045;-75
2022/07/19 11:15:34;;;;;;;4.82;2.00;;;;;;;55.40;6.21;99880.59;4892944;29;20025;-74
2022/07/19 11:18:03;;;;;;;3.40;1.75;;;;;;;55.82;6.15;99870.28;4881510;29;20033;-74
2022/07/19 11:20:30;;;;;;;4.38;2.15;;;;;;;55.77;5.68;99881.66;4880245;29;20084;-73
2022/07/19 11:22:57;;;;;;;2.83;1.85;;;;;;;55.49;6.07;99865.28;4899154;29;20047;-72
2022/07/19 11:25:26;;;;;;;6.57;2.10;;;;;;;55.94;5.83;99880.88;4884677;29;20146;-74
2022/07/19 11:27:51;;;;;;;5.32;1.75;;;;;;;55.67;5.90;99869.06;4898510;29;20051;-73
2022/07/19 11:30:22;;;;;;;2.08;1.58;;;;;;;55.49;6.30;99865.28;4877519;29;20032;-75
2022/07/19 11:32:58;;;;;;;4.88;1.83;;;;;;;55.61;6.49;99850.91;4881519;29;20083;-74
2022/07/19 11:35:25;;;;;;;3.70;2.25;;;;;;;57.20;5.39;99846.50;4884392;29;20028;-75